Time;durP1;ratioP1;P1;durP2;ratioP2;P2;SDS_P1;SDS_P2;PMS_P1;PMS_P2;Temp;Humidity;BMP_temperature;BMP_pressure;BME280_temperature;BME280_humidity;BME280_pressure;Samples;Min_cycle;Max_cycle;Signal;HPM_P1;HPM_P2
2022/08/24 00:00:01;;;;;;;1.48;0.30;;;;;;;15.72;92.81;99964.38;4972646;28;20029;-80
2022/08/24 00:02:30;;;;;;;3.50;0.40;;;;;;;15.67;92.95;99964.13;4976682;28;20037;-80
2022/08/24 00:04:56;;;;;;;1.15;0.30;;;;;;;15.66;93.22;99972.31;5014479;28;20089;-79
2022/08/24 00:07:22;;;;;;;1.92;0.20;;;;;;;15.64;93.42;99977.81;4973306;28;20490;-80
2022/08/24 00:09:48;;;;;;;1.75;0.40;;;;;;;15.64;93.67;99975.16;4967194;28;20030;-80
2022/08/24 00:12:14;;;;;;;2.13;0.47;;;;;;;15.66;93.59;99978.47;4988979;28;20069;-82
2022/08/24 00:14:40;;;;;;;1.17;0.30;;;;;;;15.63;93.85;99977.03;4964610;28;20646;-82
2022/08/24 00:17:07;;;;;;;1.77;0.30;;;;;;;15.63;94.02;99977.03;4985813;28;20124;-82
2022/08/24 00:19:32;;;;;;;0.95;0.40;;;;;;;15.70;94.04;99976.25;4971202;28;20101;-81
2022/08/24 00:21:59;;;;;;;5.68;0.50;;;;;;;15.69;93.88;99974.59;4980405;28;20128;-82
2022/08/24 00:24:27;;;;;;;2.70;0.38;;;;;;;15.75;93.86;99969.34;4989665;28;20133;-82
2022/08/24 00:26:53;;;;;;;0.65;0.32;;;;;;;15.80;93.45;99973.28;5011987;28;20133;-80
2022/08/24 00:29:20;;;;;;;3.83;0.30;;;;;;;15.83;93.42;99979.03;4966068;28;20045;-81
2022/08/24 00:31:48;;;;;;;3.90;0.50;;;;;;;15.87;93.30;99972.31;4984293;28;20442;-81
2022/08/24 00:34:16;;;;;;;0.38;0.30;;;;;;;15.93;93.12;99970.72;4967112;28;20377;-83
2022/08/24 00:36:43;;;;;;;0.52;0.40;;;;;;;15.96;92.95;99966.84;4990189;28;20045;-82
2022/08/24 00:39:10;;;;;;;1.50;0.57;;;;;;;15.99;92.76;99975.31;4999620;28;20033;-83
2022/08/24 00:41:40;;;;;;;1.35;0.30;;;;;;;16.00;92.53;99968.16;4969607;28;20041;-81
2022/08/24 00:44:06;;;;;;;4.25;0.40;;;;;;;16.07;92.41;99979.69;4973597;28;20058;-82
2022/08/24 00:46:47;;;;;;;0.70;0.32;;;;;;;16.09;92.12;99975.00;4977890;28;20040;-81
2022/08/24 00:49:19;;;;;;;1.50;0.38;;;;;;;16.20;91.74;99976.31;4999325;28;20124;-81
2022/08/24 00:51:54;;;;;;;2.30;0.40;;;;;;;16.21;91.32;99967.28;4968772;28;20030;-81
2022/08/24 00:54:24;;;;;;;0.60;0.40;;;;;;;16.27;91.02;99962.19;5007346;28;20042;-82
2022/08/24 00:56:56;;;;;;;2.53;0.40;;;;;;;16.32;91.01;99962.44;5011130;28;20117;-82
2022/08/24 00:59:33;;;;;;;0.90;0.50;;;;;;;16.33;90.32;99956.09;4995504;28;20111;-82
2022/08/24 01:02:05;;;;;;;1.95;0.50;;;;;;;16.36;90.42;99958.38;4997295;28;20267;-82
2022/08/24 01:04:52;;;;;;;0.55;0.45;;;;;;;16.34;90.35;99958.56;5017235;28;20384;-82
2022/08/24 01:07:26;;;;;;;0.75;0.30;;;;;;;16.37;90.08;99960.84;4991697;28;20145;-82
2022/08/24 01:09:59;;;;;;;1.23;0.40;;;;;;;16.36;89.80;99961.03;4981725;28;20121;-82
2022/08/24 01:12:28;;;;;;;3.47;0.70;;;;;;;16.40;89.67;99972.97;5008970;28;20042;-80
2022/08/24 01:14:56;;;;;;;1.35;0.63;;;;;;;16.32;89.68;99973.94;4995872;28;20034;-82
2022/08/24 01:20:09;;;;;;;2.25;0.50;;;;;;;16.18;89.87;99969.53;5019158;28;20108;-83
2022/08/24 01:22:41;;;;;;;1.92;0.60;;;;;;;16.19;89.64;99973.84;4969850;28;20046;-84
2022/08/24 01:25:10;;;;;;;3.90;0.80;;;;;;;16.16;89.49;99977.72;5022795;28;20065;-80
2022/08/24 01:27:42;;;;;;;2.85;0.77;;;;;;;16.17;89.48;99984.69;5020947;28;20085;-81
2022/08/24 01:30:12;;;;;;;4.93;0.70;;;;;;;16.20;89.31;99980.81;4978568;28;20034;-82
2022/08/24 01:32:39;;;;;;;1.58;0.65;;;;;;;16.19;88.99;99976.50;4953946;28;20049;-80
2022/08/24 01:35:05;;;;;;;4.28;0.63;;;;;;;16.21;88.78;99977.94;4968941;28;20031;-82
2022/08/24 01:37:31;;;;;;;4.18;0.30;;;;;;;16.20;88.56;99978.13;4961891;28;20034;-80
2022/08/24 01:40:02;;;;;;;0.75;0.50;;;;;;;16.19;88.39;99987.16;5004162;28;20030;-81
2022/08/24 01:42:28;;;;;;;4.63;0.88;;;;;;;16.18;88.48;99981.00;5004414;28;20038;-82
2022/08/24 01:44:54;;;;;;;1.73;0.40;;;;;;;16.21;88.38;99993.94;4999170;28;20042;-82
2022/08/24 01:47:20;;;;;;;2.58;0.90;;;;;;;16.19;88.03;99988.00;4976729;28;20049;-81
2022/08/24 01:49:48;;;;;;;1.40;0.65;;;;;;;16.15;87.98;99994.72;5016351;28;20034;-81
2022/08/24 01:52:21;;;;;;;4.68;0.70;;;;;;;16.10;88.02;99989.97;4978269;28;20065;-81
2022/08/24 01:54:47;;;;;;;1.80;0.80;;;;;;;16.11;88.15;99988.13;5008849;28;20030;-81
2022/08/24 01:57:13;;;;;;;3.95;0.77;;;;;;;16.10;88.07;99992.63;5008639;28;20060;-82
2022/08/24 01:59:39;;;;;;;4.40;0.85;;;;;;;16.07;88.20;99981.56;4981041;28;20494;-82
2022/08/24 02:02:12;;;;;;;2.22;0.50;;;;;;;16.06;87.97;99983.38;4988958;28;20046;-81
2022/08/24 02:04:38;;;;;;;2.03;0.60;;;;;;;16.05;88.24;99978.25;4987232;28;20403;-80
2022/08/24 02:07:04;;;;;;;6.18;0.75;;;;;;;16.03;88.17;99981.09;4991005;28;20415;-82
2022/08/24 02:09:31;;;;;;;2.25;0.63;;;;;;;16.05;88.16;99986.25;4990878;28;20038;-83
2022/08/24 02:11:59;;;;;;;1.77;0.60;;;;;;;16.05;88.15;99991.56;4988623;28;20058;-79
2022/08/24 02:14:24;;;;;;;1.48;0.60;;;;;;;16.01;88.28;99996.44;4984894;28;20410;-83
2022/08/24 02:16:50;;;;;;;4.20;0.80;;;;;;;16.01;88.19;99990.31;5005687;28;20034;-82
2022/08/24 02:19:25;;;;;;;3.67;0.82;;;;;;;15.97;88.16;100004.00;4979093;28;20041;-82
2022/08/24 02:21:51;;;;;;;2.22;0.90;;;;;;;15.92;88.39;100002.91;5000500;28;20395;-82
2022/08/24 02:24:16;;;;;;;5.57;0.80;;;;;;;15.88;88.70;100002.44;4952574;28;20042;-81
2022/08/24 02:26:42;;;;;;;7.72;1.42;;;;;;;15.83;88.97;100000.34;4992910;28;20054;-82
2022/08/24 02:29:08;;;;;;;2.40;0.63;;;;;;;15.85;89.12;100017.00;4981848;28;20043;-81
2022/08/24 02:31:35;;;;;;;6.55;2.05;;;;;;;15.80;89.14;100011.41;4985802;28;20034;-81
2022/08/24 02:34:02;;;;;;;2.47;0.65;;;;;;;15.78;89.27;100001.94;5002640;28;20118;-80
2022/08/24 02:36:29;;;;;;;4.03;0.88;;;;;;;15.75;89.43;100011.97;4967546;28;20038;-81
2022/08/24 02:38:57;;;;;;;3.55;0.90;;;;;;;15.74;89.51;100015.66;4956942;28;20038;-81
2022/08/24 02:41:24;;;;;;;1.88;0.50;;;;;;;15.75;89.58;100013.81;4991165;28;20040;-83
2022/08/24 02:43:51;;;;;;;2.25;0.70;;;;;;;15.73;89.66;100024.66;4948156;28;20030;-81
2022/08/24 02:46:20;;;;;;;3.45;1.48;;;;;;;15.75;89.58;100017.28;5023788;28;20069;-82
2022/08/24 02:48:46;;;;;;;3.17;0.80;;;;;;;15.78;89.43;100023.28;5002001;28;20039;-80
2022/08/24 02:51:26;;;;;;;3.35;0.52;;;;;;;15.78;89.23;100021.44;4990750;28;20045;-81
2022/08/24 02:53:53;;;;;;;2.13;0.75;;;;;;;15.77;89.36;100019.78;4952291;28;20051;-82
2022/08/24 02:56:20;;;;;;;3.10;0.93;;;;;;;15.80;89.17;100027.38;5003759;28;20057;-81
2022/08/24 02:58:47;;;;;;;3.00;0.80;;;;;;;15.80;89.08;100016.72;4979455;28;20489;-81
2022/08/24 03:01:14;;;;;;;3.47;0.70;;;;;;;15.82;88.91;100019.19;4998432;28;20038;-83
2022/08/24 03:03:40;;;;;;;3.50;0.77;;;;;;;15.83;88.77;100015.53;4956839;28;20366;-82
2022/08/24 03:06:07;;;;;;;3.42;0.50;;;;;;;15.81;88.26;100006.91;5015346;28;20042;-82
2022/08/24 03:08:34;;;;;;;1.40;0.73;;;;;;;15.82;88.28;100016.53;4985778;28;20045;-81
2022/08/24 03:11:01;;;;;;;2.08;0.60;;;;;;;15.79;88.02;100020.41;4998937;28;20038;-81
2022/08/24 03:13:29;;;;;;;5.20;0.57;;;;;;;15.78;87.97;100016.09;4982559;28;20038;-83
2022/08/24 03:15:56;;;;;;;2.50;0.63;;;;;;;15.77;87.82;100009.09;4962837;28;20049;-81
2022/08/24 03:18:25;;;;;;;2.17;0.90;;;;;;;15.76;87.69;100012.81;4991513;28;20496;-81
2022/08/24 03:20:55;;;;;;;2.33;0.70;;;;;;;15.78;87.40;100015.28;4954609;28;20460;-82
2022/08/24 03:23:22;;;;;;;3.55;0.63;;;;;;;15.75;87.21;100021.81;4997715;28;20109;-82
2022/08/24 03:25:50;;;;;;;2.22;1.02;;;;;;;15.75;87.08;100017.28;5006374;28;20049;-81
2022/08/24 03:28:17;;;;;;;2.88;0.75;;;;;;;15.74;86.99;100018.31;5005227;28;20034;-81
2022/08/24 03:30:44;;;;;;;1.85;0.80;;;;;;;15.69;86.69;100012.72;4951926;28;20038;-82
2022/08/24 03:33:10;;;;;;;2.28;0.75;;;;;;;15.67;86.58;100019.25;4958864;28;20605;-83
2022/08/24 03:35:36;;;;;;;2.05;0.65;;;;;;;15.61;86.33;100031.47;5002555;28;20037;-85
2022/08/24 03:38:03;;;;;;;7.03;0.75;;;;;;;15.52;86.75;100022.78;4994869;28;20037;-83
2022/08/24 03:40:32;;;;;;;6.43;1.50;;;;;;;15.45;86.92;100019.25;5006607;28;20034;-83
2022/08/24 03:42:59;;;;;;;2.40;0.52;;;;;;;15.42;86.55;100023.09;4975879;28;20034;-82
2022/08/24 03:45:28;;;;;;;1.38;0.52;;;;;;;15.38;86.86;100022.63;5000598;28;20400;-82
2022/08/24 03:47:55;;;;;;;2.50;0.60;;;;;;;15.35;86.62;100025.66;4972689;28;20041;-80
2022/08/24 03:50:22;;;;;;;3.20;0.70;;;;;;;15.32;86.33;100031.34;4964943;28;20480;-81
2022/08/24 03:52:48;;;;;;;4.38;0.77;;;;;;;15.27;86.04;100024.94;4963619;28;20046;-82
2022/08/24 03:55:14;;;;;;;3.50;0.60;;;;;;;15.25;85.90;100027.78;4999793;28;20112;-82
2022/08/24 03:57:40;;;;;;;5.85;0.60;;;;;;;15.15;85.55;100036.06;4966163;28;20513;-81
2022/08/24 04:00:09;;;;;;;4.55;0.77;;;;;;;15.09;85.72;100034.16;4975218;28;20069;-81
2022/08/24 04:02:40;;;;;;;6.20;0.90;;;;;;;15.00;86.08;100042.22;4964775;28;20042;-81
2022/08/24 04:05:09;;;;;;;1.63;0.60;;;;;;;14.92;86.16;100045.00;5004576;28;20045;-81
2022/08/24 04:07:35;;;;;;;0.95;0.50;;;;;;;14.90;86.58;100038.19;4965827;28;20051;-80
2022/08/24 04:10:05;;;;;;;2.95;0.70;;;;;;;14.89;86.73;100042.69;4989378;28;20046;-82
2022/08/24 04:12:31;;;;;;;6.07;0.93;;;;;;;14.88;86.94;100046.34;5003127;28;20039;-80
2022/08/24 04:14:57;;;;;;;2.38;0.70;;;;;;;14.91;86.94;100055.81;5008141;28;20050;-80
2022/08/24 04:17:24;;;;;;;1.38;0.50;;;;;;;14.83;87.11;100049.56;4982225;28;20062;-80
2022/08/24 04:19:59;;;;;;;1.20;0.57;;;;;;;14.76;87.39;100054.72;4998989;28;20066;-80
2022/08/24 04:22:36;;;;;;;2.40;0.70;;;;;;;14.66;87.97;100040.88;4969891;28;20027;-81
2022/08/24 04:25:05;;;;;;;4.10;0.60;;;;;;;14.68;88.22;100048.69;4961828;28;20066;-80
2022/08/24 04:27:30;;;;;;;4.25;0.82;;;;;;;14.68;88.09;100054.00;5007378;28;20049;-82
2022/08/24 04:29:56;;;;;;;4.65;0.68;;;;;;;14.67;88.18;100047.03;4973620;28;20030;-81
2022/08/24 04:32:24;;;;;;;3.00;0.63;;;;;;;14.68;87.88;100054.00;5006306;28;20121;-82
2022/08/24 04:34:52;;;;;;;5.43;0.60;;;;;;;14.70;87.84;100050.16;4972936;28;20034;-81
2022/08/24 04:37:18;;;;;;;3.60;0.60;;;;;;;14.70;87.42;100054.66;4971141;28;20035;-79
2022/08/24 04:39:44;;;;;;;1.65;0.50;;;;;;;14.73;87.18;100070.25;5018187;28;20034;-80
2022/08/24 04:42:10;;;;;;;2.45;0.47;;;;;;;14.72;87.08;100080.06;4988621;28;20046;-80
2022/08/24 04:44:38;;;;;;;3.30;0.50;;;;;;;14.73;86.66;100088.88;5015013;28;20052;-80
2022/08/24 04:47:07;;;;;;;1.42;0.50;;;;;;;14.68;86.42;100084.09;4984609;28;20030;-80
2022/08/24 04:49:33;;;;;;;6.32;0.68;;;;;;;14.65;86.47;100089.78;4999366;28;20035;-80
2022/08/24 04:51:59;;;;;;;5.68;0.82;;;;;;;14.62;86.54;100101.59;4964614;28;20061;-81
2022/08/24 04:54:26;;;;;;;1.58;0.50;;;;;;;14.58;86.47;100099.47;4957167;28;20046;-80
2022/08/24 04:57:12;;;;;;;1.88;0.30;;;;;;;14.52;86.80;100101.84;4976919;28;20049;-81
2022/08/24 04:59:39;;;;;;;5.82;0.90;;;;;;;14.47;86.75;100096.25;4960007;28;20065;-79
2022/08/24 05:02:06;;;;;;;2.67;0.50;;;;;;;14.41;86.79;100094.31;4999813;28;20133;-81
2022/08/24 05:04:31;;;;;;;3.53;0.60;;;;;;;14.43;87.08;100094.13;5002805;28;20129;-81
2022/08/24 05:06:57;;;;;;;4.68;0.98;;;;;;;14.44;86.83;100093.09;4992853;28;20798;-81
2022/08/24 05:09:23;;;;;;;3.20;0.55;;;;;;;14.44;86.52;100090.44;5021515;28;20041;-82
2022/08/24 05:11:49;;;;;;;5.20;0.50;;;;;;;14.46;86.38;100109.72;4986612;28;20039;-79
2022/08/24 05:14:19;;;;;;;2.40;0.73;;;;;;;14.43;86.07;100102.91;4964596;28;20030;-80
2022/08/24 05:16:45;;;;;;;4.72;0.50;;;;;;;14.37;86.11;100104.47;4998647;28;20080;-81
2022/08/24 05:19:11;;;;;;;3.75;0.70;;;;;;;14.34;86.12;100111.94;4974330;28;20443;-80
2022/08/24 05:21:38;;;;;;;1.65;0.60;;;;;;;14.27;86.10;100114.47;5002816;28;20110;-81
2022/08/24 05:24:04;;;;;;;1.85;0.60;;;;;;;14.17;86.39;100116.56;4981952;28;20066;-81
2022/08/24 05:26:31;;;;;;;2.78;0.77;;;;;;;14.12;86.69;100117.09;4976601;28;20041;-80
2022/08/24 05:29:00;;;;;;;2.35;0.50;;;;;;;14.06;86.95;100112.47;4967885;28;20157;-81
2022/08/24 05:31:32;;;;;;;6.43;1.08;;;;;;;13.96;87.17;100115.34;4988018;28;20145;-80
2022/08/24 05:34:03;;;;;;;4.15;0.50;;;;;;;13.93;87.60;100113.88;5017104;28;20042;-81
2022/08/24 05:36:32;;;;;;;4.63;0.60;;;;;;;13.94;87.51;100120.00;4982139;28;20042;-82
2022/08/24 05:39:00;;;;;;;4.15;1.20;;;;;;;13.96;87.64;100129.47;5018754;28;20102;-81
2022/08/24 05:41:27;;;;;;;1.83;0.60;;;;;;;14.01;87.35;100135.06;4981835;28;20485;-81
2022/08/24 05:43:59;;;;;;;2.72;0.52;;;;;;;14.04;87.15;100135.72;4972978;28;20048;-82
2022/08/24 05:46:26;;;;;;;3.25;1.05;;;;;;;14.01;86.83;100132.41;4995286;28;20031;-82
2022/08/24 05:48:53;;;;;;;3.55;0.77;;;;;;;14.01;86.96;100128.94;4957683;28;20038;-80
2022/08/24 05:51:29;;;;;;;5.28;0.90;;;;;;;13.99;87.19;100121.16;4995243;28;21042;-80
2022/08/24 05:54:00;;;;;;;1.73;0.50;;;;;;;14.02;87.10;100120.81;4944557;28;20041;-81
2022/08/24 05:56:34;;;;;;;1.73;0.50;;;;;;;14.05;87.04;100132.09;4948276;28;20026;-80
2022/08/24 05:59:01;;;;;;;4.13;0.45;;;;;;;14.08;86.93;100134.41;4956908;28;20109;-80
2022/08/24 06:01:27;;;;;;;4.82;1.27;;;;;;;14.10;86.75;100135.88;5004104;28;20109;-82
2022/08/24 06:03:56;;;;;;;2.45;0.60;;;;;;;14.15;86.56;100143.31;4973277;28;20523;-82
2022/08/24 06:06:23;;;;;;;3.47;0.40;;;;;;;14.18;86.18;100142.13;4984916;28;20054;-80
2022/08/24 06:08:54;;;;;;;3.80;0.65;;;;;;;14.19;86.22;100149.13;4977647;28;20027;-82
2022/08/24 06:11:23;;;;;;;4.32;0.80;;;;;;;14.18;86.33;100150.09;5020087;28;20034;-84
2022/08/24 06:13:56;;;;;;;3.35;0.50;;;;;;;14.20;86.37;100150.75;4983926;28;20412;-82
2022/08/24 06:16:22;;;;;;;1.05;0.50;;;;;;;14.17;86.63;100157.25;4964482;28;20568;-83
2022/08/24 06:18:51;;;;;;;1.85;0.40;;;;;;;14.22;87.03;100157.53;5003187;28;20035;-81
2022/08/24 06:21:23;;;;;;;4.57;0.57;;;;;;;14.29;86.50;100159.50;5031781;28;20062;-82
2022/08/24 06:23:50;;;;;;;2.25;0.77;;;;;;;14.26;86.56;100156.22;4962363;28;20035;-82
2022/08/24 06:29:02;;;;;;;4.18;0.57;;;;;;;14.34;86.10;100165.97;4973826;28;20069;-82
2022/08/24 06:31:29;;;;;;;2.30;0.50;;;;;;;14.39;86.28;100176.06;4958817;28;20113;-81
2022/08/24 06:33:55;;;;;;;1.35;0.40;;;;;;;14.37;85.96;100175.41;4967651;28;20030;-82
2022/08/24 06:36:21;;;;;;;2.47;0.50;;;;;;;14.37;86.06;100178.91;4942206;28;20034;-82
2022/08/24 06:38:47;;;;;;;3.33;0.40;;;;;;;14.37;86.19;100173.59;4947074;28;20066;-81
2022/08/24 06:41:14;;;;;;;2.90;0.70;;;;;;;14.42;86.12;100177.53;4989336;28;20492;-82
2022/08/24 06:43:40;;;;;;;3.95;0.80;;;;;;;14.46;86.25;100184.19;4977183;28;20030;-82
2022/08/24 06:46:11;;;;;;;4.90;0.50;;;;;;;14.48;86.28;100185.66;4996417;28;20034;-82
2022/08/24 06:48:44;;;;;;;2.28;0.30;;;;;;;14.51;86.08;100187.94;4955850;28;20035;-82
2022/08/24 06:51:17;;;;;;;3.22;0.88;;;;;;;14.56;86.08;100189.25;5003572;28;20038;-82
2022/08/24 06:53:45;;;;;;;5.93;1.23;;;;;;;14.60;86.18;100191.41;5004646;28;20034;-83
2022/08/24 06:56:12;;;;;;;6.45;1.00;;;;;;;14.63;85.94;100198.19;4967683;28;20038;-83
2022/08/24 06:58:38;;;;;;;1.65;0.65;;;;;;;14.61;85.81;100195.69;4994453;28;20097;-82
2022/08/24 07:01:27;;;;;;;2.38;0.50;;;;;;;14.63;85.92;100211.47;5005223;28;20508;-82
2022/08/24 07:03:54;;;;;;;1.17;0.70;;;;;;;14.66;86.20;100213.78;4996564;28;20109;-83
2022/08/24 07:06:38;;;;;;;4.60;0.80;;;;;;;14.67;86.25;100217.28;5007992;28;20082;-82
2022/08/24 07:09:04;;;;;;;4.63;0.68;;;;;;;14.71;86.19;100208.78;4956213;28;20519;-82
2022/08/24 07:11:32;;;;;;;2.55;0.60;;;;;;;14.80;86.29;100219.34;4994045;28;20026;-82
2022/08/24 07:13:59;;;;;;;3.15;0.90;;;;;;;14.85;86.01;100225.81;5002080;28;20058;-84
2022/08/24 07:16:25;;;;;;;3.85;0.80;;;;;;;14.84;86.40;100215.34;4968165;28;20062;-83
2022/08/24 07:18:55;;;;;;;3.75;1.30;;;;;;;14.87;86.77;100213.16;4971168;28;20030;-81
2022/08/24 07:21:22;;;;;;;2.97;1.10;;;;;;;14.88;86.80;100206.84;4996845;28;20069;-84
2022/08/24 07:23:54;;;;;;;4.40;1.50;;;;;;;14.92;86.78;100225.09;4956458;28;20384;-81
2022/08/24 07:26:21;;;;;;;4.45;1.20;;;;;;;14.91;86.98;100224.25;4977007;28;20050;-81
2022/08/24 07:28:59;;;;;;;4.75;1.92;;;;;;;14.94;87.11;100231.91;4990428;28;20392;-82
2022/08/24 07:31:27;;;;;;;3.78;1.02;;;;;;;14.95;87.30;100224.75;4987222;28;20041;-82
2022/08/24 07:34:06;;;;;;;3.45;0.75;;;;;;;14.98;87.36;100222.56;4970842;28;20042;-83
2022/08/24 07:36:33;;;;;;;3.72;1.10;;;;;;;15.01;87.33;100229.34;5017361;28;20030;-81
2022/08/24 07:38:59;;;;;;;3.35;1.02;;;;;;;15.03;87.51;100229.16;4990613;28;20031;-82
2022/08/24 07:41:26;;;;;;;4.53;1.30;;;;;;;15.06;87.83;100231.47;4934028;28;20034;-84
2022/08/24 07:43:53;;;;;;;2.97;0.88;;;;;;;15.08;87.85;100238.25;4964367;28;20121;-81
2022/08/24 07:46:19;;;;;;;2.38;0.98;;;;;;;15.10;87.88;100238.91;4982322;28;20034;-81
2022/08/24 07:48:45;;;;;;;3.72;0.80;;;;;;;15.15;88.05;100243.69;4978937;28;20046;-81
2022/08/24 07:51:16;;;;;;;2.30;0.80;;;;;;;15.20;87.82;100245.81;4979256;28;20026;-82
2022/08/24 07:53:43;;;;;;;4.00;0.90;;;;;;;15.24;88.05;100249.81;5007874;28;20039;-83
2022/08/24 07:56:11;;;;;;;2.53;1.00;;;;;;;15.31;88.15;100252.53;4952365;28;20042;-81
2022/08/24 07:58:39;;;;;;;6.30;1.30;;;;;;;15.34;88.55;100250.34;4982921;28;20027;-85
2022/08/24 08:01:07;;;;;;;5.00;1.58;;;;;;;15.36;88.18;100255.50;4970765;28;20041;-81
2022/08/24 08:03:33;;;;;;;2.55;0.90;;;;;;;15.34;88.17;100257.50;4980385;28;20109;-85
2022/08/24 08:06:01;;;;;;;1.52;0.88;;;;;;;15.36;88.08;100263.50;4987682;28;20873;-84
2022/08/24 08:08:28;;;;;;;3.17;0.82;;;;;;;15.42;88.04;100256.59;4992419;28;20073;-85
2022/08/24 08:10:55;;;;;;;1.23;0.82;;;;;;;15.40;87.95;100262.13;4999656;28;20066;-84
2022/08/24 08:13:21;;;;;;;2.95;1.08;;;;;;;15.43;88.01;100266.28;4976885;28;20036;-83
2022/08/24 08:15:48;;;;;;;2.45;0.90;;;;;;;15.46;87.85;100268.56;5005184;28;20061;-83
2022/08/24 08:18:17;;;;;;;2.15;0.85;;;;;;;15.50;87.73;100267.19;4974082;28;20085;-84
2022/08/24 08:20:43;;;;;;;5.28;1.10;;;;;;;15.49;87.57;100271.72;4987950;28;20112;-83
2022/08/24 08:26:20;;;;;;;1.77;1.20;;;;;;;15.48;88.05;100275.34;4988143;28;20038;-83
2022/08/24 08:29:05;;;;;;;2.05;1.10;;;;;;;15.54;88.10;100291.63;4976706;28;20042;-83
2022/08/24 08:31:34;;;;;;;7.80;1.63;;;;;;;15.54;88.12;100300.47;5019944;28;20484;-85
2022/08/24 08:33:59;;;;;;;3.97;1.27;;;;;;;15.53;88.34;100298.78;4988898;28;20104;-85
2022/08/24 08:36:25;;;;;;;3.60;1.15;;;;;;;15.51;88.33;100295.50;4959765;28;20038;-84
2022/08/24 08:38:52;;;;;;;4.60;1.20;;;;;;;15.56;88.38;100294.97;4988408;28;20033;-80
2022/08/24 08:41:39;;;;;;;2.03;0.90;;;;;;;15.58;88.21;100291.09;5016299;28;20034;-85
2022/08/24 08:44:36;;;;;;;3.50;1.38;;;;;;;15.63;88.60;100301.19;4997551;28;20085;-83
2022/08/24 08:47:04;;;;;;;4.50;1.30;;;;;;;15.66;88.22;100303.50;4972651;28;20086;-84
2022/08/24 08:49:38;;;;;;;3.35;1.13;;;;;;;15.72;88.06;100299.28;4968114;28;20398;-85
2022/08/24 08:52:41;;;;;;;3.13;1.10;;;;;;;15.74;87.36;100291.94;4987354;28;20048;-83
2022/08/24 08:55:35;;;;;;;1.83;0.80;;;;;;;15.72;87.53;100297.44;4998671;28;20698;-84
2022/08/24 08:58:26;;;;;;;4.65;1.15;;;;;;;15.72;87.49;100297.44;5006501;28;20067;-84
2022/08/24 09:00:55;;;;;;;5.80;1.10;;;;;;;15.72;87.75;100289.44;4960204;28;20056;-83
2022/08/24 09:03:44;;;;;;;1.65;0.93;;;;;;;15.74;87.77;100286.59;4968117;28;20038;-80
2022/08/24 09:07:01;;;;;;;3.88;0.98;;;;;;;15.79;87.32;100286.06;4967644;28;20053;-84
2022/08/24 09:10:02;;;;;;;4.97;0.88;;;;;;;15.82;87.07;100286.53;5018840;28;20038;-84
2022/08/24 09:12:51;;;;;;;5.28;0.75;;;;;;;15.90;86.73;100290.94;4978119;28;20030;-84
2022/08/24 09:15:55;;;;;;;6.35;0.80;;;;;;;15.93;86.42;100298.56;4986884;28;20030;-83
2022/08/24 09:18:30;;;;;;;5.03;0.77;;;;;;;15.97;86.49;100291.88;4967610;28;20073;-82
2022/08/24 09:21:08;;;;;;;1.85;0.63;;;;;;;16.00;86.47;100296.03;4966682;28;20037;-79
2022/08/24 09:23:59;;;;;;;3.28;0.70;;;;;;;16.05;86.00;100295.47;5020703;28;20030;-83
2022/08/24 09:26:31;;;;;;;2.53;0.70;;;;;;;16.08;85.71;100295.09;4980593;28;20046;-83
2022/08/24 09:29:04;;;;;;;2.23;0.83;;;;;;;16.08;85.22;100298.59;5005439;28;20160;-85
2022/08/24 09:31:41;;;;;;;4.50;0.98;;;;;;;16.15;85.19;100312.00;4995077;28;20458;-82
2022/08/24 09:34:17;;;;;;;3.63;1.08;;;;;;;16.21;84.69;100305.13;4986243;28;20034;-80
2022/08/24 09:36:52;;;;;;;10.45;1.10;;;;;;;16.27;84.51;100311.53;5003006;28;20124;-83
2022/08/24 09:39:44;;;;;;;6.95;1.40;;;;;;;16.35;84.25;100306.94;5003740;28;20101;-82
2022/08/24 09:42:43;;;;;;;6.00;0.68;;;;;;;16.47;83.73;100309.94;5005975;28;20398;-83
2022/08/24 09:45:28;;;;;;;3.33;0.65;;;;;;;16.60;82.89;100300.44;4967701;28;20038;-81
2022/08/24 09:48:30;;;;;;;5.32;1.13;;;;;;;16.74;81.43;100304.91;5000373;28;20517;-82
2022/08/24 09:50:58;;;;;;;3.45;0.50;;;;;;;16.96;81.19;100298.78;4982212;28;20054;-81
2022/08/24 09:53:36;;;;;;;3.30;0.57;;;;;;;17.10;79.96;100295.22;5013998;28;20080;-84
2022/08/24 09:56:36;;;;;;;4.88;1.00;;;;;;;17.14;78.34;100293.00;4990565;28;20065;-80
2022/08/24 09:59:40;;;;;;;4.88;0.63;;;;;;;17.14;78.23;100295.69;5022097;28;20034;-83
2022/08/24 10:02:31;;;;;;;4.18;0.80;;;;;;;17.14;77.45;100282.31;4983846;28;20465;-84
2022/08/24 10:05:06;;;;;;;6.22;0.93;;;;;;;17.18;77.47;100296.13;4979518;28;20045;-83
2022/08/24 10:08:06;;;;;;;3.97;0.57;;;;;;;17.15;76.61;100289.34;4973042;28;20046;-82
2022/08/24 10:10:40;;;;;;;3.72;0.45;;;;;;;17.20;76.72;100294.91;5020812;28;20081;-81
2022/08/24 10:13:30;;;;;;;3.60;0.70;;;;;;;17.40;75.58;100298.78;4998475;28;20061;-80
2022/08/24 10:16:14;;;;;;;5.47;0.63;;;;;;;17.55;75.02;100296.84;5007531;28;20038;-80
2022/08/24 10:19:05;;;;;;;9.02;0.70;;;;;;;17.61;73.04;100301.41;5000235;28;20037;-80
2022/08/24 10:21:44;;;;;;;3.70;0.43;;;;;;;17.70;72.47;100301.25;4962273;28;20117;-80
2022/08/24 10:24:28;;;;;;;2.33;0.50;;;;;;;17.81;72.05;100307.91;4969013;28;20038;-79
2022/08/24 10:27:06;;;;;;;4.47;0.90;;;;;;;17.96;71.41;100311.28;4999512;28;20084;-82
2022/08/24 10:29:41;;;;;;;9.52;1.10;;;;;;;17.96;70.73;100310.47;4974271;28;20040;-83
2022/08/24 10:32:24;;;;;;;7.05;1.70;;;;;;;17.88;69.71;100313.28;4979926;28;20034;-81
2022/08/24 10:34:50;;;;;;;4.18;0.85;;;;;;;17.82;69.88;100315.72;4977066;28;20408;-82
2022/08/24 10:37:41;;;;;;;3.78;0.70;;;;;;;17.90;69.12;100316.59;4983857;28;20041;-82
2022/08/24 10:40:19;;;;;;;4.45;0.60;;;;;;;17.90;67.44;100314.75;4916871;28;20026;-81
2022/08/24 10:46:27;;;;;;;5.15;1.17;;;;;;;17.96;66.22;100319.31;4989981;28;20048;-81
2022/08/24 10:49:24;;;;;;;8.27;0.68;;;;;;;18.07;66.12;100312.59;4988032;28;20048;-81
2022/08/24 10:51:58;;;;;;;10.48;0.47;;;;;;;18.13;65.62;100313.69;4992975;28;20049;-81
2022/08/24 10:54:24;;;;;;;4.63;0.60;;;;;;;18.23;65.34;100310.66;5013829;28;20081;-86
2022/08/24 10:57:05;;;;;;;3.22;0.60;;;;;;;18.35;64.38;100314.41;4976763;28;20038;-81
2022/08/24 10:59:48;;;;;;;4.00;0.55;;;;;;;18.51;64.11;100312.41;4999818;28;20055;-83
2022/08/24 11:02:26;;;;;;;2.13;0.35;;;;;;;18.64;62.31;100310.78;4988253;28;20037;-77
2022/08/24 11:04:57;;;;;;;5.38;0.30;;;;;;;18.77;62.60;100307.31;4971650;28;20116;-75
2022/08/24 11:07:23;;;;;;;5.78;0.52;;;;;;;18.86;61.64;100310.66;4956178;28;20077;-81
2022/08/24 11:10:00;;;;;;;3.25;0.43;;;;;;;18.87;60.89;100315.81;4998666;28;20022;-82
2022/08/24 11:12:31;;;;;;;2.78;0.60;;;;;;;18.83;61.07;100317.22;4958614;28;20509;-87
2022/08/24 11:15:00;;;;;;;3.53;0.60;;;;;;;18.82;60.83;100318.25;5004021;28;20133;-83
2022/08/24 11:17:28;;;;;;;4.13;0.50;;;;;;;18.81;60.48;100311.22;4989041;28;20091;-82
2022/08/24 11:19:57;;;;;;;5.78;0.50;;;;;;;18.72;60.05;100319.47;4987752;28;20034;-83
2022/08/24 11:22:35;;;;;;;6.15;0.75;;;;;;;18.62;58.97;100321.69;4998061;28;20049;-83
2022/08/24 11:25:24;;;;;;;4.25;0.60;;;;;;;18.52;57.19;100335.44;4970704;28;20365;-82
2022/08/24 11:27:56;;;;;;;2.85;0.50;;;;;;;18.52;58.14;100332.78;5001052;28;20034;-82
2022/08/24 11:30:28;;;;;;;3.97;0.47;;;;;;;18.53;57.76;100329.09;5013154;28;20674;-82
2022/08/24 11:32:56;;;;;;;1.15;0.40;;;;;;;18.57;57.23;100326.84;5007495;28;20045;-81
2022/08/24 11:35:30;;;;;;;3.53;0.70;;;;;;;18.69;56.80;100330.59;5005875;28;20034;-79
2022/08/24 11:38:19;;;;;;;3.75;0.60;;;;;;;18.80;54.40;100322.97;4980317;28;20420;-83
2022/08/24 11:40:53;;;;;;;2.00;0.30;;;;;;;18.88;55.75;100316.63;4969280;28;20096;-82
2022/08/24 11:43:22;;;;;;;4.28;0.65;;;;;;;18.96;54.78;100316.44;4972805;28;20046;-79
2022/08/24 11:46:12;;;;;;;5.32;0.43;;;;;;;19.01;53.53;100318.50;4981398;28;20179;-82
2022/08/24 11:48:58;;;;;;;2.42;0.55;;;;;;;19.01;52.15;100323.84;4997839;28;20046;-83
2022/08/24 11:51:51;;;;;;;2.35;0.52;;;;;;;18.89;52.11;100329.00;4985236;28;20034;-81
2022/08/24 11:54:47;;;;;;;4.05;0.40;;;;;;;18.76;52.43;100332.47;4978288;28;20041;-80
2022/08/24 11:57:46;;;;;;;4.38;0.60;;;;;;;18.77;53.28;100328.75;4977840;28;20038;-81
2022/08/24 12:00:19;;;;;;;4.10;0.60;;;;;;;18.80;54.39;100334.53;4986338;28;20025;-83